Time;durP1;ratioP1;P1;durP2;ratioP2;P2;SDS_P1;SDS_P2;PMS_P1;PMS_P2;Temp;Humidity;BMP_temperature;BMP_pressure;BME280_temperature;BME280_humidity;BME280_pressure;Samples;Min_cycle;Max_cycle;Signal;HPM_P1;HPM_P2
2022/11/16 00:01:49;;;;;;;104.47;98.13;;;;;;;;;;10193851;28;20053;-66
2022/11/16 00:06:47;;;;;;;108.57;102.05;;;;;;;;;;10190307;28;20133;-66
2022/11/16 00:11:44;;;;;;;102.25;96.15;;;;;;;;;;10192192;28;20061;-66
2022/11/16 00:16:40;;;;;;;107.20;100.55;;;;;;;;;;10191443;28;20487;-67
2022/11/16 00:21:36;;;;;;;109.53;102.65;;;;;;;;;;10191478;28;20049;-67
2022/11/16 00:26:32;;;;;;;110.65;103.88;;;;;;;;;;10190541;28;20061;-66
2022/11/16 00:31:29;;;;;;;110.63;103.68;;;;;;;;;;10191609;28;20052;-67
2022/11/16 00:36:25;;;;;;;111.60;104.57;;;;;;;;;;10189894;28;20050;-67
2022/11/16 00:41:21;;;;;;;118.18;110.70;;;;;;;;;;10191654;28;20416;-67
2022/11/16 00:46:17;;;;;;;117.47;109.68;;;;;;;;;;10190117;28;20049;-67
2022/11/16 00:51:13;;;;;;;115.53;108.20;;;;;;;;;;10190028;28;20042;-67
2022/11/16 00:56:10;;;;;;;109.03;101.95;;;;;;;;;;10190880;28;20494;-67
2022/11/16 01:01:07;;;;;;;110.57;103.30;;;;;;;;;;10189720;28;20050;-67
2022/11/16 01:06:05;;;;;;;109.43;102.30;;;;;;;;;;10154626;28;1036912;-67
2022/11/16 01:16:19;;;;;;;115.70;108.15;;;;;;;;;;10170227;28;20423;-67
2022/11/16 01:21:15;;;;;;;114.50;106.57;;;;;;;;;;10189005;28;20507;-66
2022/11/16 01:26:11;;;;;;;114.80;107.05;;;;;;;;;;10188269;28;20046;-67
2022/11/16 01:31:08;;;;;;;110.78;103.00;;;;;;;;;;10191937;28;20647;-67
2022/11/16 01:36:13;;;;;;;114.32;107.05;;;;;;;;;;10177671;28;20056;-67
2022/11/16 01:41:17;;;;;;;116.30;108.75;;;;;;;;;;10186234;28;20459;-66
2022/11/16 01:46:13;;;;;;;110.20;103.15;;;;;;;;;;10189377;28;20583;-66
2022/11/16 01:51:09;;;;;;;109.53;101.97;;;;;;;;;;10191537;28;20471;-66
2022/11/16 01:56:07;;;;;;;113.15;105.10;;;;;;;;;;10188700;28;20415;-67
2022/11/16 02:01:03;;;;;;;111.22;104.03;;;;;;;;;;10191306;28;20085;-67
2022/11/16 02:06:06;;;;;;;111.32;103.82;;;;;;;;;;10183512;28;20073;-67
2022/11/16 02:11:02;;;;;;;116.00;108.15;;;;;;;;;;10189851;28;20049;-67
2022/11/16 02:16:01;;;;;;;112.85;105.32;;;;;;;;;;10183528;28;20050;-67
2022/11/16 02:21:19;;;;;;;111.75;103.93;;;;;;;;;;10189184;28;20054;-66
2022/11/16 02:26:34;;;;;;;114.95;107.32;;;;;;;;;;10185674;28;20052;-66
2022/11/16 02:31:35;;;;;;;115.30;107.63;;;;;;;;;;10191772;28;20451;-66
2022/11/16 02:36:33;;;;;;;113.38;105.55;;;;;;;;;;10196063;28;20061;-66
2022/11/16 02:41:31;;;;;;;113.22;104.95;;;;;;;;;;10197409;28;20046;-66
2022/11/16 02:46:29;;;;;;;111.68;103.78;;;;;;;;;;10185790;28;20069;-66
2022/11/16 02:51:26;;;;;;;110.63;103.03;;;;;;;;;;10196361;28;20045;-67
2022/11/16 02:56:22;;;;;;;114.63;106.68;;;;;;;;;;10195686;28;20050;-67
2022/11/16 03:01:26;;;;;;;116.47;108.10;;;;;;;;;;10195783;28;20144;-67
2022/11/16 03:06:32;;;;;;;115.47;106.95;;;;;;;;;;10195583;28;20474;-67
2022/11/16 03:16:59;;;;;;;113.18;104.82;;;;;;;;;;10175845;28;20065;-66
2022/11/16 03:21:58;;;;;;;109.70;101.68;;;;;;;;;;10193493;28;20061;-67
2022/11/16 03:26:54;;;;;;;118.20;109.15;;;;;;;;;;10192296;28;20507;-67
2022/11/16 03:31:54;;;;;;;109.65;101.70;;;;;;;;;;10195282;28;20447;-66
2022/11/16 03:36:51;;;;;;;113.25;105.03;;;;;;;;;;10192733;28;20042;-66
2022/11/16 03:41:48;;;;;;;110.32;102.15;;;;;;;;;;10194162;28;20137;-67
2022/11/16 03:46:45;;;;;;;112.57;104.22;;;;;;;;;;10193378;28;20038;-67
2022/11/16 03:51:41;;;;;;;110.15;102.35;;;;;;;;;;10194413;28;20049;-66
2022/11/16 03:56:38;;;;;;;112.50;104.22;;;;;;;;;;10194044;28;20042;-67
2022/11/16 04:01:34;;;;;;;111.07;103.28;;;;;;;;;;10194514;28;20626;-67
2022/11/16 04:38:09;;;;;;;101.32;93.88;;;;;;;;;;10192362;28;20042;-66
2022/11/16 04:43:06;;;;;;;104.85;96.65;;;;;;;;;;10190120;28;20042;-66
2022/11/16 04:48:02;;;;;;;107.18;99.55;;;;;;;;;;10191401;28;20049;-67
2022/11/16 04:52:59;;;;;;;108.00;99.95;;;;;;;;;;10192032;28;20096;-67
2022/11/16 04:57:55;;;;;;;102.63;95.00;;;;;;;;;;10190000;28;20054;-66
2022/11/16 05:02:51;;;;;;;103.43;95.45;;;;;;;;;;10191932;28;20077;-66
2022/11/16 05:07:54;;;;;;;101.78;94.15;;;;;;;;;;10192010;28;20504;-67
2022/11/16 05:12:51;;;;;;;107.50;99.63;;;;;;;;;;10189060;28;20534;-66
2022/11/16 05:17:47;;;;;;;105.07;97.20;;;;;;;;;;10190693;28;20129;-67
2022/11/16 05:22:43;;;;;;;104.03;95.97;;;;;;;;;;10191866;28;20073;-67
2022/11/16 05:27:39;;;;;;;102.10;94.18;;;;;;;;;;10187603;28;20133;-67
2022/11/16 05:32:36;;;;;;;101.93;94.13;;;;;;;;;;10191942;28;20048;-67
2022/11/16 05:37:32;;;;;;;100.15;92.65;;;;;;;;;;10190685;28;20145;-66
2022/11/16 05:42:28;;;;;;;99.18;91.53;;;;;;;;;;10191587;28;20049;-66
2022/11/16 05:47:24;;;;;;;98.55;91.32;;;;;;;;;;10188549;28;20045;-67
2022/11/16 05:52:21;;;;;;;98.32;90.38;;;;;;;;;;10191460;28;20069;-66
2022/11/16 05:57:17;;;;;;;108.28;99.95;;;;;;;;;;10190235;28;20129;-67
2022/11/16 06:02:13;;;;;;;111.00;102.65;;;;;;;;;;10190180;28;20495;-66
2022/11/16 06:07:09;;;;;;;113.70;105.25;;;;;;;;;;10193904;28;20045;-67
2022/11/16 06:12:08;;;;;;;117.57;108.25;;;;;;;;;;10196155;28;20038;-67
2022/11/16 06:17:04;;;;;;;114.13;105.63;;;;;;;;;;10198020;28;20050;-66
2022/11/16 06:22:00;;;;;;;120.07;110.80;;;;;;;;;;10197424;28;20091;-66
2022/11/16 06:26:56;;;;;;;118.68;109.90;;;;;;;;;;10197608;28;20054;-66
2022/11/16 06:31:52;;;;;;;118.45;110.03;;;;;;;;;;10197561;28;20057;-66
2022/11/16 06:36:49;;;;;;;117.03;108.80;;;;;;;;;;10196899;28;20060;-66
2022/11/16 06:41:45;;;;;;;114.50;106.30;;;;;;;;;;10197149;28;20125;-67
2022/11/16 06:46:41;;;;;;;121.07;112.55;;;;;;;;;;10196497;28;20057;-66
2022/11/16 06:51:38;;;;;;;119.30;111.15;;;;;;;;;;10197368;28;20136;-66
2022/11/16 06:56:34;;;;;;;116.35;108.20;;;;;;;;;;10196073;28;21412;-66
2022/11/16 07:01:30;;;;;;;116.72;108.78;;;;;;;;;;10196886;28;20125;-66
2022/11/16 07:06:28;;;;;;;115.70;107.53;;;;;;;;;;10195528;28;20125;-66
2022/11/16 07:11:24;;;;;;;118.90;110.45;;;;;;;;;;10196030;28;20049;-65
2022/11/16 07:16:20;;;;;;;122.65;114.53;;;;;;;;;;10187537;28;20098;-65
2022/11/16 07:21:17;;;;;;;115.13;107.28;;;;;;;;;;10191935;28;20415;-65
2022/11/16 07:26:14;;;;;;;120.85;112.40;;;;;;;;;;10194171;28;20116;-65
2022/11/16 07:31:11;;;;;;;110.20;102.50;;;;;;;;;;10194481;28;20049;-65
2022/11/16 07:36:14;;;;;;;107.70;99.88;;;;;;;;;;10194564;28;20057;-67
2022/11/16 07:41:15;;;;;;;107.38;100.15;;;;;;;;;;10194019;28;20037;-65
2022/11/16 07:46:13;;;;;;;108.97;101.28;;;;;;;;;;10192927;28;20141;-65
2022/11/16 07:51:30;;;;;;;101.95;94.65;;;;;;;;;;10188939;28;20038;-65
2022/11/16 07:56:26;;;;;;;98.85;91.43;;;;;;;;;;10193944;28;20049;-65
2022/11/16 08:01:23;;;;;;;99.85;92.80;;;;;;;;;;10194286;28;20436;-65
2022/11/16 08:06:21;;;;;;;99.80;92.35;;;;;;;;;;10193937;28;20038;-65
2022/11/16 08:11:17;;;;;;;105.65;97.78;;;;;;;;;;10191640;28;20042;-65
2022/11/16 08:16:16;;;;;;;100.95;93.63;;;;;;;;;;10193414;28;20577;-65
2022/11/16 08:21:13;;;;;;;98.50;91.38;;;;;;;;;;10188383;28;20441;-65
2022/11/16 08:26:14;;;;;;;103.10;95.20;;;;;;;;;;10189903;28;20042;-65
2022/11/16 08:31:19;;;;;;;100.95;93.57;;;;;;;;;;10191296;28;20093;-65
2022/11/16 08:36:16;;;;;;;99.68;92.13;;;;;;;;;;10185365;28;20046;-65
2022/11/16 08:41:12;;;;;;;94.38;86.45;;;;;;;;;;10184296;28;20404;-65
2022/11/16 08:46:09;;;;;;;99.25;91.43;;;;;;;;;;10191421;28;20121;-65
2022/11/16 08:51:09;;;;;;;94.10;86.70;;;;;;;;;;10192888;28;20045;-66
2022/11/16 08:56:13;;;;;;;96.63;88.72;;;;;;;;;;10185897;28;20052;-65
2022/11/16 09:01:11;;;;;;;89.07;81.70;;;;;;;;;;10191939;28;20045;-65
2022/11/16 09:06:08;;;;;;;92.65;85.45;;;;;;;;;;10190511;28;20077;-65
2022/11/16 09:11:05;;;;;;;99.60;91.60;;;;;;;;;;10190952;28;20118;-65
2022/11/16 09:16:01;;;;;;;101.22;93.05;;;;;;;;;;10189925;28;20042;-65
2022/11/16 09:20:58;;;;;;;92.53;84.90;;;;;;;;;;10188001;28;20052;-65
2022/11/16 09:25:54;;;;;;;97.10;89.05;;;;;;;;;;10187372;28;20150;-65
2022/11/16 09:30:50;;;;;;;96.38;89.05;;;;;;;;;;10190624;28;20173;-65
2022/11/16 09:35:47;;;;;;;97.25;89.53;;;;;;;;;;10191100;28;20038;-65
2022/11/16 09:40:44;;;;;;;101.95;93.45;;;;;;;;;;10196679;28;20040;-65
2022/11/16 09:45:59;;;;;;;103.53;95.05;;;;;;;;;;10198183;28;20038;-65
2022/11/16 09:50:57;;;;;;;103.82;95.05;;;;;;;;;;10199713;28;20539;-65
2022/11/16 09:56:00;;;;;;;100.75;92.57;;;;;;;;;;10196427;28;20049;-65
2022/11/16 10:01:02;;;;;;;105.28;96.05;;;;;;;;;;10196487;28;20050;-65
2022/11/16 10:06:02;;;;;;;99.85;91.03;;;;;;;;;;10197940;28;20045;-65
2022/11/16 10:11:22;;;;;;;100.93;92.55;;;;;;;;;;10197531;28;20422;-65
2022/11/16 10:16:19;;;;;;;102.50;93.80;;;;;;;;;;10196285;28;20042;-65
2022/11/16 10:21:34;;;;;;;102.63;93.53;;;;;;;;;;10197659;28;20038;-66
2022/11/16 10:26:34;;;;;;;102.43;93.68;;;;;;;;;;10188836;28;20415;-65
2022/11/16 10:31:50;;;;;;;104.10;95.13;;;;;;;;;;10196890;28;20042;-65
2022/11/16 10:36:46;;;;;;;107.30;97.68;;;;;;;;;;10196295;28;20077;-66
2022/11/16 10:41:45;;;;;;;105.20;96.68;;;;;;;;;;10196498;28;20575;-65
2022/11/16 10:46:45;;;;;;;108.25;99.18;;;;;;;;;;10195790;28;20042;-65
2022/11/16 10:51:41;;;;;;;101.07;92.53;;;;;;;;;;10191294;28;20052;-66
2022/11/16 10:56:41;;;;;;;106.63;96.97;;;;;;;;;;10196139;28;20694;-65
2022/11/16 11:01:42;;;;;;;103.82;94.55;;;;;;;;;;10196912;28;20049;-67
2022/11/16 11:06:39;;;;;;;109.15;99.78;;;;;;;;;;10195445;28;20100;-65
2022/11/16 11:16:53;;;;;;;106.68;97.32;;;;;;;;;;10194925;28;20057;-65
2022/11/16 11:21:54;;;;;;;106.85;97.15;;;;;;;;;;10194860;28;20038;-65
2022/11/16 11:26:51;;;;;;;111.13;101.43;;;;;;;;;;10195317;28;20045;-65
2022/11/16 11:31:50;;;;;;;113.50;103.15;;;;;;;;;;10193693;28;20042;-65
2022/11/16 11:36:57;;;;;;;121.45;111.15;;;;;;;;;;10191350;28;20049;-65
2022/11/16 11:42:19;;;;;;;117.05;106.90;;;;;;;;;;10192622;28;20050;-67
2022/11/16 11:47:23;;;;;;;117.75;107.72;;;;;;;;;;10189875;28;20046;-65
2022/11/16 11:52:39;;;;;;;;;;;;;;;;;;10193523;28;20980;-65
2022/11/16 11:57:37;;;;;;;117.65;106.93;;;;;;;;;;10193119;28;19930;-64
2022/11/16 12:02:59;;;;;;;113.95;104.32;;;;;;;;;;10193049;28;20062;-65
2022/11/16 12:08:09;;;;;;;116.15;105.85;;;;;;;;;;10190421;28;20143;-65
2022/11/16 12:13:22;;;;;;;123.97;112.72;;;;;;;;;;10190847;28;20050;-65
2022/11/16 12:18:18;;;;;;;122.05;111.72;;;;;;;;;;10188539;28;20699;-65
2022/11/16 12:23:14;;;;;;;124.97;113.70;;;;;;;;;;10193033;28;20100;-65
2022/11/16 12:28:19;;;;;;;123.78;112.13;;;;;;;;;;10189559;28;20046;-65
2022/11/16 12:33:20;;;;;;;119.00;108.07;;;;;;;;;;10185596;28;20515;-65
2022/11/16 12:38:26;;;;;;;125.53;113.72;;;;;;;;;;10185713;28;20045;-65
2022/11/16 12:43:39;;;;;;;120.55;109.68;;;;;;;;;;10207783;28;20053;-65
2022/11/16 12:48:43;;;;;;;130.25;118.93;;;;;;;;;;10191571;28;20056;-65
2022/11/16 12:53:42;;;;;;;125.10;113.78;;;;;;;;;;10191931;28;20511;-65
2022/11/16 12:58:44;;;;;;;124.35;113.63;;;;;;;;;;10192152;28;20507;-65
2022/11/16 13:03:47;;;;;;;120.18;109.38;;;;;;;;;;10191566;28;20386;-65
2022/11/16 13:08:49;;;;;;;127.82;116.38;;;;;;;;;;10191495;28;20415;-65
2022/11/16 13:13:46;;;;;;;114.68;104.25;;;;;;;;;;10190667;28;20064;-65
2022/11/16 13:18:49;;;;;;;119.82;108.97;;;;;;;;;;10191955;28;20042;-66
2022/11/16 13:23:58;;;;;;;123.63;112.47;;;;;;;;;;10189449;28;20423;-66
2022/11/16 13:28:57;;;;;;;115.85;105.30;;;;;;;;;;10182433;28;20042;-66
2022/11/16 13:34:00;;;;;;;116.13;105.32;;;;;;;;;;10191359;28;20048;-65
2022/11/16 13:38:56;;;;;;;114.32;104.18;;;;;;;;;;10190648;28;20050;-65
2022/11/16 13:43:52;;;;;;;117.00;106.38;;;;;;;;;;10191011;28;20052;-65
2022/11/16 13:48:49;;;;;;;113.25;103.00;;;;;;;;;;10189680;28;20050;-65
2022/11/16 13:53:47;;;;;;;109.50;100.22;;;;;;;;;;10190444;28;20054;-65
2022/11/16 13:59:04;;;;;;;113.40;103.68;;;;;;;;;;10190992;28;20518;-65
2022/11/16 14:04:19;;;;;;;117.20;107.70;;;;;;;;;;10189095;28;20403;-65
2022/11/16 14:09:34;;;;;;;113.03;103.43;;;;;;;;;;10181829;28;20042;-65
2022/11/16 14:14:49;;;;;;;113.95;104.47;;;;;;;;;;10187006;28;20034;-66
2022/11/16 14:19:48;;;;;;;111.82;102.95;;;;;;;;;;10185773;28;20049;-66
2022/11/16 14:24:59;;;;;;;108.60;99.47;;;;;;;;;;10188724;28;20045;-67
2022/11/16 14:30:11;;;;;;;112.38;102.57;;;;;;;;;;10197817;28;20129;-65
2022/11/16 14:35:21;;;;;;;111.60;102.75;;;;;;;;;;10195088;28;20083;-66
2022/11/16 14:40:18;;;;;;;115.70;106.30;;;;;;;;;;10192448;28;20045;-66
2022/11/16 14:45:21;;;;;;;117.68;107.78;;;;;;;;;;10196252;28;20066;-65
2022/11/16 14:50:20;;;;;;;115.95;106.53;;;;;;;;;;10193842;28;20057;-65
2022/11/16 14:55:18;;;;;;;123.38;113.05;;;;;;;;;;10195864;28;20046;-66
2022/11/16 15:00:19;;;;;;;121.63;111.68;;;;;;;;;;10195977;28;20046;-65
2022/11/16 15:05:17;;;;;;;119.93;109.97;;;;;;;;;;10195317;28;20060;-65
2022/11/16 15:10:15;;;;;;;119.47;109.40;;;;;;;;;;10195798;28;20080;-66
2022/11/16 15:15:11;;;;;;;117.88;108.22;;;;;;;;;;10195388;28;20038;-65
2022/11/16 15:20:16;;;;;;;112.10;103.13;;;;;;;;;;10193048;28;20056;-66
2022/11/16 15:25:30;;;;;;;105.00;96.47;;;;;;;;;;10193109;28;20049;-66
2022/11/16 15:30:28;;;;;;;97.53;89.35;;;;;;;;;;10189089;28;20498;-65
2022/11/16 15:35:24;;;;;;;98.43;90.60;;;;;;;;;;10193490;28;20042;-65
2022/11/16 15:40:20;;;;;;;93.50;85.22;;;;;;;;;;10193955;28;20042;-65
2022/11/16 15:45:19;;;;;;;88.38;80.97;;;;;;;;;;10193847;28;20046;-66
2022/11/16 15:50:18;;;;;;;90.55;83.25;;;;;;;;;;10194689;28;20047;-65
2022/11/16 15:55:34;;;;;;;84.53;78.22;;;;;;;;;;10193491;28;20049;-66
2022/11/16 16:00:32;;;;;;;83.00;76.60;;;;;;;;;;10192727;28;20407;-65
2022/11/16 16:05:35;;;;;;;81.05;74.70;;;;;;;;;;10194274;28;20124;-65
2022/11/16 16:10:32;;;;;;;77.72;71.80;;;;;;;;;;10194064;28;20476;-65
2022/11/16 16:15:32;;;;;;;73.13;67.63;;;;;;;;;;10193679;28;20055;-66
2022/11/16 16:20:30;;;;;;;65.30;60.30;;;;;;;;;;10187454;28;20454;-65
2022/11/16 16:25:31;;;;;;;69.35;64.10;;;;;;;;;;10191396;28;20523;-66
2022/11/16 16:30:28;;;;;;;68.45;63.42;;;;;;;;;;10188518;28;20056;-65
2022/11/16 16:35:24;;;;;;;62.42;57.70;;;;;;;;;;10190584;28;20679;-65
2022/11/16 16:40:20;;;;;;;59.40;54.75;;;;;;;;;;10189254;28;20099;-66
2022/11/16 16:45:23;;;;;;;59.90;55.33;;;;;;;;;;10192134;28;20053;-66
2022/11/16 16:50:19;;;;;;;55.25;51.15;;;;;;;;;;10192774;28;20042;-66
2022/11/16 16:55:15;;;;;;;53.58;49.55;;;;;;;;;;10191475;28;20050;-66
2022/11/16 17:00:12;;;;;;;59.50;55.50;;;;;;;;;;10194442;28;20048;-66
2022/11/16 17:05:08;;;;;;;58.80;54.38;;;;;;;;;;10193543;28;20050;-66
2022/11/16 17:10:05;;;;;;;58.45;54.22;;;;;;;;;;10191250;28;20042;-65
2022/11/16 17:15:01;;;;;;;59.13;55.00;;;;;;;;;;10185245;28;20046;-65
2022/11/16 17:19:57;;;;;;;55.97;52.42;;;;;;;;;;10190473;28;20050;-65
2022/11/16 17:24:53;;;;;;;62.70;58.50;;;;;;;;;;10186593;28;20536;-65
2022/11/16 17:29:49;;;;;;;61.28;57.08;;;;;;;;;;10190681;28;20050;-65
2022/11/16 17:34:46;;;;;;;58.30;54.50;;;;;;;;;;10190739;28;20046;-66
2022/11/16 17:39:42;;;;;;;58.90;55.00;;;;;;;;;;10191147;28;20507;-65
2022/11/16 17:44:38;;;;;;;61.45;57.53;;;;;;;;;;10190818;28;20050;-65
2022/11/16 17:49:34;;;;;;;58.15;54.00;;;;;;;;;;10185073;28;20455;-66
2022/11/16 17:54:31;;;;;;;65.03;60.72;;;;;;;;;;10190693;28;20504;-65
2022/11/16 17:59:27;;;;;;;69.65;65.07;;;;;;;;;;10192504;28;20049;-65
2022/11/16 18:04:25;;;;;;;70.53;66.00;;;;;;;;;;10197747;28;20046;-66
2022/11/16 18:09:21;;;;;;;78.55;73.65;;;;;;;;;;10197670;28;20486;-66
2022/11/16 18:14:17;;;;;;;84.95;79.65;;;;;;;;;;10192245;28;20046;-65
2022/11/16 18:19:15;;;;;;;88.38;83.15;;;;;;;;;;10197515;28;20038;-65
2022/11/16 18:24:11;;;;;;;89.35;83.93;;;;;;;;;;10197756;28;20042;-66
2022/11/16 18:29:10;;;;;;;91.43;85.88;;;;;;;;;;10194883;28;20046;-65
2022/11/16 18:34:07;;;;;;;100.25;94.20;;;;;;;;;;10197633;28;20038;-66
2022/11/16 18:39:03;;;;;;;100.10;94.00;;;;;;;;;;10196316;28;20042;-65
2022/11/16 18:44:00;;;;;;;104.03;97.70;;;;;;;;;;10196951;28;20414;-65
2022/11/16 18:48:57;;;;;;;106.28;99.57;;;;;;;;;;10194849;28;20044;-65
2022/11/16 18:53:53;;;;;;;106.85;100.10;;;;;;;;;;10196787;28;20073;-66
2022/11/16 18:58:49;;;;;;;104.88;98.38;;;;;;;;;;10194194;28;20526;-65
2022/11/16 19:03:48;;;;;;;110.07;103.03;;;;;;;;;;10195393;28;20100;-65
2022/11/16 19:08:46;;;;;;;111.10;103.72;;;;;;;;;;10194987;28;20065;-65
2022/11/16 19:13:54;;;;;;;117.97;110.57;;;;;;;;;;10195175;28;20476;-66
2022/11/16 19:18:51;;;;;;;118.95;111.20;;;;;;;;;;10192554;28;20042;-65
2022/11/16 19:23:49;;;;;;;121.63;113.85;;;;;;;;;;10193207;28;20789;-65
2022/11/16 19:28:46;;;;;;;122.22;114.25;;;;;;;;;;10193134;28;20046;-65
2022/11/16 19:33:43;;;;;;;120.72;112.80;;;;;;;;;;10194404;28;20062;-65
2022/11/16 19:38:40;;;;;;;120.47;112.55;;;;;;;;;;10194097;28;20061;-65
2022/11/16 19:43:36;;;;;;;126.15;117.32;;;;;;;;;;10195322;28;20404;-65
2022/11/16 19:48:33;;;;;;;126.88;118.72;;;;;;;;;;10194040;28;20427;-66
2022/11/16 19:53:29;;;;;;;130.95;122.53;;;;;;;;;;10194749;28;20053;-66
2022/11/16 19:58:25;;;;;;;128.45;120.00;;;;;;;;;;10208821;28;20042;-66
2022/11/16 20:03:21;;;;;;;131.98;123.40;;;;;;;;;;10194231;28;20046;-66
2022/11/16 20:08:18;;;;;;;129.50;121.05;;;;;;;;;;10186792;28;20044;-65
2022/11/16 20:13:14;;;;;;;128.75;120.70;;;;;;;;;;10194542;28;20042;-65
2022/11/16 20:18:10;;;;;;;133.50;125.28;;;;;;;;;;10191439;28;20048;-65
2022/11/16 20:23:07;;;;;;;131.52;123.63;;;;;;;;;;10192115;28;20068;-65
2022/11/16 20:28:03;;;;;;;134.80;126.22;;;;;;;;;;10191914;28;20040;-65
2022/11/16 20:32:59;;;;;;;133.07;124.97;;;;;;;;;;10192312;28;20042;-65
2022/11/16 20:37:55;;;;;;;130.77;122.70;;;;;;;;;;10192131;28;20558;-65
2022/11/16 20:42:56;;;;;;;129.05;121.18;;;;;;;;;;10191252;28;20143;-65
2022/11/16 20:47:52;;;;;;;126.50;119.20;;;;;;;;;;10191115;28;20034;-65
2022/11/16 20:52:49;;;;;;;123.60;116.35;;;;;;;;;;10191587;28;20076;-65
2022/11/16 20:57:48;;;;;;;119.50;112.53;;;;;;;;;;10191612;28;20049;-65
2022/11/16 21:02:44;;;;;;;125.65;118.57;;;;;;;;;;10191939;28;20060;-65
2022/11/16 21:07:41;;;;;;;127.28;120.15;;;;;;;;;;10191161;28;20045;-65
2022/11/16 21:17:52;;;;;;;115.45;109.18;;;;;;;;;;10189777;28;20418;-65
2022/11/16 21:22:48;;;;;;;117.63;111.28;;;;;;;;;;10190928;28;20060;-65
2022/11/16 21:27:46;;;;;;;113.55;107.65;;;;;;;;;;10189002;28;20060;-65
2022/11/16 21:32:42;;;;;;;108.97;103.13;;;;;;;;;;10191216;28;20053;-68
2022/11/16 21:37:38;;;;;;;96.00;90.53;;;;;;;;;;10197956;28;20054;-65
2022/11/16 21:42:34;;;;;;;96.97;91.88;;;;;;;;;;10198820;28;20045;-67
2022/11/16 21:47:30;;;;;;;95.43;90.55;;;;;;;;;;10197944;28;20396;-65
2022/11/16 21:52:27;;;;;;;83.85;79.38;;;;;;;;;;10198052;28;20038;-65
2022/11/16 21:57:23;;;;;;;84.57;80.07;;;;;;;;;;10198291;28;20042;-65
2022/11/16 22:02:20;;;;;;;68.30;64.45;;;;;;;;;;10197887;28;20152;-65
2022/11/16 22:07:31;;;;;;;72.53;68.57;;;;;;;;;;10196801;28;20038;-65
2022/11/16 22:12:28;;;;;;;59.35;56.00;;;;;;;;;;10195620;28;20496;-65
2022/11/16 22:17:24;;;;;;;51.67;48.85;;;;;;;;;;10197071;28;20093;-67
2022/11/16 22:22:20;;;;;;;47.17;44.58;;;;;;;;;;10197322;28;20076;-67
2022/11/16 22:27:17;;;;;;;47.42;44.83;;;;;;;;;;10193769;28;20128;-67
2022/11/16 22:32:13;;;;;;;41.53;39.22;;;;;;;;;;10197660;28;20041;-65
2022/11/16 22:37:10;;;;;;;40.17;37.90;;;;;;;;;;10197062;28;20049;-66
2022/11/16 22:42:06;;;;;;;36.83;34.72;;;;;;;;;;10193638;28;20042;-67
2022/11/16 22:47:02;;;;;;;37.10;35.00;;;;;;;;;;10196535;28;20083;-65
2022/11/16 22:51:58;;;;;;;32.38;30.20;;;;;;;;;;10195136;28;20049;-67
2022/11/16 22:56:54;;;;;;;26.90;25.30;;;;;;;;;;10196322;28;20120;-66
2022/11/16 23:01:50;;;;;;;26.60;24.90;;;;;;;;;;10195472;28;20052;-67
2022/11/16 23:06:48;;;;;;;25.25;23.65;;;;;;;;;;10195860;28;20068;-67
2022/11/16 23:16:59;;;;;;;21.80;20.40;;;;;;;;;;10195943;28;20042;-67
2022/11/16 23:27:28;;;;;;;19.17;17.98;;;;;;;;;;10194143;28;20045;-67
2022/11/16 23:32:25;;;;;;;20.83;19.52;;;;;;;;;;10194002;28;20050;-67
2022/11/16 23:37:21;;;;;;;20.13;18.83;;;;;;;;;;10194231;28;20136;-67
2022/11/16 23:47:32;;;;;;;19.83;18.40;;;;;;;;;;10193929;28;20065;-65
2022/11/16 23:52:28;;;;;;;18.45;17.25;;;;;;;;;;10195065;28;20541;-65
2022/11/16 23:57:24;;;;;;;18.55;17.13;;;;;;;;;;10192785;28;20041;-67
